createdAt,value
2018-07-21T00:01:18.369Z,8.40
2018-07-21T00:03:45.808Z,8.35
2018-07-21T00:06:13.409Z,10.00
2018-07-21T00:08:40.800Z,8.25
2018-07-21T00:11:08.276Z,8.30
2018-07-21T00:13:35.726Z,8.30
2018-07-21T00:16:03.426Z,8.58
2018-07-21T00:18:30.830Z,7.90
2018-07-21T00:20:58.308Z,7.70
2018-07-21T00:23:25.755Z,7.67
2018-07-21T00:25:53.155Z,7.62
2018-07-21T00:28:20.686Z,7.53
2018-07-21T00:30:48.232Z,7.80
2018-07-21T00:33:15.731Z,7.25
2018-07-21T00:35:43.141Z,7.35
2018-07-21T00:38:10.627Z,7.30
2018-07-21T00:40:38.051Z,12.98
2018-07-21T00:43:05.596Z,8.65
2018-07-21T00:45:33.011Z,7.40
2018-07-21T00:48:00.586Z,7.65
2018-07-21T00:50:28.206Z,7.97
2018-07-21T00:52:55.682Z,7.42
2018-07-21T00:55:23.127Z,7.40
2018-07-21T00:57:50.622Z,7.58
2018-07-21T01:00:18.101Z,7.83
2018-07-21T01:02:45.595Z,7.97
2018-07-21T01:05:13.051Z,8.23
2018-07-21T01:07:40.536Z,8.27
2018-07-21T01:10:08.248Z,7.90
2018-07-21T01:12:36.301Z,7.90
2018-07-21T01:15:04.523Z,7.78
2018-07-21T01:17:31.976Z,8.38
2018-07-21T01:19:59.459Z,8.33
2018-07-21T01:22:26.918Z,8.03
2018-07-21T01:24:54.424Z,7.83
2018-07-21T01:27:21.975Z,8.20
2018-07-21T01:29:49.380Z,7.85
2018-07-21T01:32:16.861Z,9.03
2018-07-21T01:34:44.299Z,8.00
2018-07-21T01:37:11.833Z,8.03
2018-07-21T01:39:39.275Z,7.87
2018-07-21T01:42:06.717Z,8.30
2018-07-21T01:44:34.276Z,8.08
2018-07-21T01:47:01.705Z,8.33
2018-07-21T01:49:29.117Z,8.35
2018-07-21T01:51:56.502Z,8.20
2018-07-21T01:54:24.006Z,8.20
2018-07-21T01:56:51.556Z,8.40
2018-07-21T01:59:19.029Z,8.70
2018-07-21T02:01:46.443Z,8.38
2018-07-21T02:04:13.849Z,8.45
2018-07-21T02:06:41.331Z,8.90
2018-07-21T02:09:10.036Z,8.88
2018-07-21T02:11:37.519Z,8.78
2018-07-21T02:14:05.068Z,9.10
2018-07-21T02:16:32.637Z,9.98
2018-07-21T02:19:00.055Z,9.87
2018-07-21T02:21:27.579Z,9.17
2018-07-21T02:23:55.104Z,9.50
2018-07-21T02:26:22.620Z,10.13
2018-07-21T02:28:50.297Z,10.08
2018-07-21T02:31:17.914Z,9.70
2018-07-21T02:33:45.416Z,10.18
2018-07-21T02:36:12.854Z,9.88
2018-07-21T02:38:40.334Z,9.63
2018-07-21T02:41:07.863Z,9.13
2018-07-21T02:43:35.255Z,9.03
2018-07-21T02:46:02.728Z,8.90
2018-07-21T02:48:30.179Z,8.90
2018-07-21T02:50:57.604Z,9.08
2018-07-21T02:53:25.007Z,9.20
2018-07-21T02:55:52.473Z,8.93
2018-07-21T02:58:19.926Z,8.68
2018-07-21T03:00:47.380Z,9.00
2018-07-21T03:03:14.819Z,8.88
2018-07-21T03:05:42.253Z,8.25
2018-07-21T03:08:09.726Z,8.50
2018-07-21T03:10:37.162Z,8.60
2018-07-21T03:13:04.589Z,8.50
2018-07-21T03:15:32.138Z,8.75
2018-07-21T03:17:59.580Z,8.20
2018-07-21T03:20:27.056Z,9.00
2018-07-21T03:22:54.503Z,8.90
2018-07-21T03:25:21.871Z,8.73
2018-07-21T03:27:49.433Z,8.65
2018-07-21T03:30:16.999Z,9.03
2018-07-21T03:32:50.420Z,8.83
2018-07-21T03:35:17.828Z,8.88
2018-07-21T03:37:45.247Z,9.18
2018-07-21T03:40:12.710Z,9.43
2018-07-21T03:42:40.828Z,9.38
2018-07-21T03:45:08.436Z,9.03
2018-07-21T03:47:35.894Z,8.95
2018-07-21T03:50:03.873Z,9.38
2018-07-21T03:52:31.380Z,9.35
2018-07-21T03:54:58.892Z,9.80
2018-07-21T03:57:26.281Z,9.60
2018-07-21T03:59:53.742Z,9.20
2018-07-21T04:02:21.250Z,9.67
2018-07-21T04:04:48.731Z,9.80
2018-07-21T04:07:16.183Z,9.23
2018-07-21T04:09:43.619Z,9.25
2018-07-21T04:12:11.190Z,9.48
2018-07-21T04:14:38.609Z,9.40
2018-07-21T04:17:10.601Z,9.18
2018-07-21T04:19:37.987Z,9.50
2018-07-21T04:22:05.338Z,9.85
2018-07-21T04:24:32.709Z,8.78
2018-07-21T04:27:00.186Z,9.30
2018-07-21T04:29:27.711Z,9.28
2018-07-21T04:31:55.134Z,9.55
2018-07-21T04:34:22.564Z,9.93
2018-07-21T04:36:49.960Z,9.75
2018-07-21T04:39:17.421Z,9.70
2018-07-21T04:41:44.847Z,9.63
2018-07-21T04:44:12.242Z,10.05
2018-07-21T04:46:39.698Z,10.60
2018-07-21T04:49:07.127Z,9.93
2018-07-21T04:51:34.482Z,9.85
2018-07-21T04:54:02.015Z,9.63
2018-07-21T04:56:29.500Z,10.03
2018-07-21T04:58:56.920Z,9.45
2018-07-21T05:01:24.395Z,8.63
2018-07-21T05:03:51.847Z,8.45
2018-07-21T05:06:19.315Z,8.13
2018-07-21T05:08:46.807Z,8.10
2018-07-21T05:11:14.201Z,8.23
2018-07-21T05:13:41.668Z,7.95
2018-07-21T05:16:09.124Z,7.67
2018-07-21T05:18:36.597Z,7.90
2018-07-21T05:21:04.074Z,8.17
2018-07-21T05:23:31.491Z,7.70
2018-07-21T05:25:58.951Z,7.67
2018-07-21T05:28:26.596Z,8.30
2018-07-21T05:30:54.052Z,8.13
2018-07-21T05:33:21.555Z,8.05
2018-07-21T05:35:48.994Z,8.05
2018-07-21T05:38:16.366Z,8.30
2018-07-21T05:40:43.832Z,8.53
2018-07-21T05:43:11.303Z,8.83
2018-07-21T05:45:38.666Z,8.68
2018-07-21T05:48:05.958Z,9.10
2018-07-21T05:50:33.472Z,9.23
2018-07-21T05:53:00.969Z,9.17
2018-07-21T05:55:28.382Z,8.93
2018-07-21T05:57:55.890Z,8.80
2018-07-21T06:00:23.399Z,9.00
2018-07-21T06:02:50.856Z,9.45
2018-07-21T06:05:18.275Z,9.15
2018-07-21T06:07:45.778Z,9.48
2018-07-21T06:10:13.217Z,9.95
2018-07-21T06:12:40.735Z,9.38
2018-07-21T06:15:08.278Z,9.43
2018-07-21T06:17:35.713Z,9.73
2018-07-21T06:20:03.187Z,9.20
2018-07-21T06:22:30.872Z,9.00
2018-07-21T06:24:58.250Z,9.35
2018-07-21T06:27:25.640Z,10.30
2018-07-21T06:29:53.035Z,10.13
2018-07-21T06:32:20.594Z,10.28
2018-07-21T06:34:48.156Z,10.43
2018-07-21T06:37:15.495Z,10.03
2018-07-21T06:39:42.958Z,10.30
2018-07-21T06:42:10.388Z,10.30
2018-07-21T06:44:37.896Z,9.85
2018-07-21T06:47:05.686Z,9.48
2018-07-21T06:49:33.168Z,10.13
2018-07-21T06:52:00.506Z,10.15
2018-07-21T06:54:28.073Z,9.33
2018-07-21T06:56:55.408Z,9.18
2018-07-21T06:59:22.907Z,9.20
2018-07-21T07:01:50.420Z,8.93
2018-07-21T07:04:17.800Z,8.80
2018-07-21T07:06:45.332Z,10.88
2018-07-21T07:09:12.777Z,8.98
2018-07-21T07:11:40.414Z,7.50
2018-07-21T07:14:08.769Z,8.33
2018-07-21T07:16:36.572Z,8.08
2018-07-21T07:19:04.429Z,7.13
2018-07-21T07:21:31.894Z,7.35
2018-07-21T07:23:59.424Z,7.35
2018-07-21T07:26:26.979Z,6.83
2018-07-21T07:28:54.505Z,6.72
2018-07-21T07:31:22.046Z,6.97
2018-07-21T07:33:49.453Z,7.83
2018-07-21T07:36:17.021Z,8.55
2018-07-21T07:38:44.401Z,7.10
2018-07-21T07:41:11.948Z,8.28
2018-07-21T07:43:39.361Z,7.12
2018-07-21T07:46:06.821Z,7.30
2018-07-21T07:48:34.410Z,7.22
2018-07-21T07:51:02.042Z,7.53
2018-07-21T07:53:29.553Z,6.97
2018-07-21T07:55:56.897Z,6.72
2018-07-21T07:58:24.255Z,7.12
2018-07-21T08:00:51.845Z,7.72
2018-07-21T08:03:19.346Z,7.20
2018-07-21T08:05:46.735Z,7.22
2018-07-21T08:08:14.313Z,8.30
2018-07-21T08:10:41.831Z,8.98
2018-07-21T08:13:09.396Z,7.95
2018-07-21T08:15:36.820Z,7.83
2018-07-21T08:18:05.625Z,7.40
2018-07-21T08:20:33.126Z,9.00
2018-07-21T08:23:00.618Z,8.70
2018-07-21T08:25:28.185Z,9.10
2018-07-21T08:27:55.787Z,15.08
2018-07-21T08:30:23.286Z,9.55
2018-07-21T08:32:50.678Z,8.20
2018-07-21T08:35:18.169Z,9.48
2018-07-21T08:37:45.563Z,8.78
2018-07-21T08:40:13.058Z,8.65
2018-07-21T08:42:40.410Z,9.05
2018-07-21T08:45:08.497Z,9.23
2018-07-21T08:47:35.951Z,9.27
2018-07-21T08:50:04.655Z,9.83
2018-07-21T08:52:32.032Z,9.90
2018-07-21T08:54:59.576Z,10.90
2018-07-21T08:57:27.135Z,10.65
2018-07-21T08:59:54.659Z,10.60
2018-07-21T09:02:22.085Z,10.55
2018-07-21T09:04:49.666Z,10.65
2018-07-21T09:07:17.160Z,11.45
2018-07-21T09:09:44.617Z,11.30
2018-07-21T09:12:12.090Z,11.25
2018-07-21T09:14:39.606Z,11.22
2018-07-21T09:17:07.178Z,11.08
2018-07-21T09:19:34.629Z,11.70
2018-07-21T09:22:02.170Z,11.83
2018-07-21T09:24:29.748Z,12.60
2018-07-21T09:26:57.220Z,12.15
2018-07-21T09:29:24.694Z,13.40
2018-07-21T09:31:52.182Z,13.40
2018-07-21T09:34:19.779Z,12.70
2018-07-21T09:36:47.267Z,11.85
2018-07-21T09:39:14.746Z,10.70
2018-07-21T09:41:42.346Z,10.32
2018-07-21T09:44:09.981Z,11.08
2018-07-21T09:46:38.411Z,11.15
2018-07-21T09:49:05.948Z,11.30
2018-07-21T09:51:33.481Z,11.28
2018-07-21T09:54:01.041Z,9.90
2018-07-21T09:56:28.525Z,10.50
2018-07-21T09:58:56.107Z,11.65
2018-07-21T10:01:23.608Z,11.28
2018-07-21T10:03:51.121Z,11.30
2018-07-21T10:06:18.688Z,11.18
2018-07-21T10:08:46.274Z,11.28
2018-07-21T10:11:13.739Z,11.13
2018-07-21T10:13:41.201Z,11.63
2018-07-21T10:16:08.835Z,11.43
2018-07-21T10:18:36.297Z,10.68
2018-07-21T10:21:03.807Z,10.20
2018-07-21T10:23:31.358Z,10.35
2018-07-21T10:26:04.557Z,11.00
2018-07-21T10:28:37.791Z,10.82
2018-07-21T10:31:05.250Z,11.10
2018-07-21T10:33:32.722Z,10.90
2018-07-21T10:36:00.305Z,11.23
2018-07-21T10:38:27.811Z,11.60
2018-07-21T10:40:55.308Z,11.25
2018-07-21T10:43:22.878Z,10.63
2018-07-21T10:45:50.375Z,10.72
2018-07-21T10:48:17.767Z,10.20
2018-07-21T10:50:45.234Z,10.70
2018-07-21T10:53:12.645Z,10.40
2018-07-21T10:55:40.169Z,9.95
2018-07-21T10:58:07.732Z,9.43
2018-07-21T11:00:35.164Z,8.60
2018-07-21T11:03:02.715Z,9.03
2018-07-21T11:05:30.200Z,8.33
2018-07-21T11:07:57.804Z,8.78
2018-07-21T11:10:25.429Z,9.30
2018-07-21T11:12:52.899Z,8.65
2018-07-21T11:15:20.518Z,8.35
2018-07-21T11:17:47.950Z,8.13
2018-07-21T11:20:15.452Z,8.23
2018-07-21T11:22:42.827Z,8.27
2018-07-21T11:25:10.322Z,8.20
2018-07-21T11:27:37.827Z,8.60
2018-07-21T11:30:05.712Z,8.80
2018-07-21T11:32:33.219Z,8.05
2018-07-21T11:35:00.743Z,8.58
2018-07-21T11:37:28.199Z,8.55
2018-07-21T11:39:55.583Z,8.45
2018-07-21T11:42:23.085Z,8.83
2018-07-21T11:44:50.717Z,7.55
2018-07-21T11:47:18.185Z,8.05
2018-07-21T11:49:45.807Z,7.47
2018-07-21T11:52:13.331Z,7.90
2018-07-21T11:54:40.844Z,7.80
2018-07-21T11:57:08.396Z,7.12
2018-07-21T11:59:35.856Z,6.90
2018-07-21T12:02:03.472Z,7.25
2018-07-21T12:04:32.599Z,7.17
2018-07-21T12:07:00.148Z,7.33
2018-07-21T12:09:27.539Z,7.70
2018-07-21T12:11:55.057Z,7.53
2018-07-21T12:14:22.505Z,7.60
2018-07-21T12:16:50.121Z,7.42
2018-07-21T12:19:17.531Z,8.00
2018-07-21T12:21:44.987Z,7.43
2018-07-21T12:24:12.520Z,6.55
2018-07-21T12:26:39.988Z,7.33
2018-07-21T12:29:07.707Z,7.92
2018-07-21T12:31:35.166Z,7.03
2018-07-21T12:34:02.720Z,6.85
2018-07-21T12:36:30.199Z,6.97
2018-07-21T12:38:57.761Z,6.70
2018-07-21T12:41:25.266Z,7.25
2018-07-21T12:43:52.850Z,6.62
2018-07-21T12:46:20.334Z,7.30
2018-07-21T12:48:47.841Z,6.90
2018-07-21T12:51:15.517Z,6.45
2018-07-21T12:53:43.124Z,7.33
2018-07-21T12:56:10.543Z,6.57
2018-07-21T12:58:38.156Z,6.22
2018-07-21T13:01:05.714Z,6.87
2018-07-21T13:03:33.250Z,6.97
2018-07-21T13:06:00.737Z,6.87
2018-07-21T13:08:28.147Z,7.07
2018-07-21T13:10:55.784Z,7.20
2018-07-21T13:13:23.356Z,7.00
2018-07-21T13:15:50.810Z,6.40
2018-07-21T13:18:18.176Z,6.53
2018-07-21T13:20:45.701Z,6.85
2018-07-21T13:23:13.524Z,6.72
2018-07-21T13:28:40.644Z,7.00
2018-07-21T13:31:08.167Z,6.90
2018-07-21T13:33:36.451Z,6.90
2018-07-21T13:36:03.997Z,6.93
2018-07-21T13:38:31.792Z,7.17
2018-07-21T13:40:59.243Z,7.42
2018-07-21T13:43:26.674Z,7.47
2018-07-21T13:45:54.257Z,7.05
2018-07-21T13:48:21.682Z,7.33
2018-07-21T13:50:49.195Z,7.00
2018-07-21T13:53:16.675Z,7.10
2018-07-21T13:55:44.224Z,7.23
2018-07-21T13:58:13.290Z,7.03
2018-07-21T14:00:40.884Z,7.30
2018-07-21T14:03:08.331Z,7.08
2018-07-21T14:05:35.911Z,6.40
2018-07-21T14:08:03.394Z,6.87
2018-07-21T14:10:30.950Z,7.20
2018-07-21T14:12:58.467Z,6.92
2018-07-21T14:15:26.057Z,6.92
2018-07-21T14:17:53.582Z,7.08
2018-07-21T14:20:21.364Z,6.97
2018-07-21T14:22:48.919Z,7.60
2018-07-21T14:25:16.594Z,7.25
2018-07-21T14:27:44.066Z,6.78
2018-07-21T14:30:11.604Z,7.25
2018-07-21T14:32:39.077Z,6.90
2018-07-21T14:35:06.632Z,6.55
2018-07-21T14:37:34.130Z,6.47
2018-07-21T14:40:01.641Z,6.72
2018-07-21T14:42:29.161Z,7.00
2018-07-21T14:44:56.629Z,6.72
2018-07-21T14:47:24.137Z,6.95
2018-07-21T14:49:51.621Z,6.58
2018-07-21T14:52:19.170Z,5.03
2018-07-21T14:54:46.643Z,5.80
2018-07-21T14:57:14.017Z,4.62
2018-07-21T14:59:41.461Z,15.95
2018-07-21T15:02:08.984Z,10.13
2018-07-21T15:04:36.486Z,12.63
2018-07-21T15:07:03.869Z,9.50
2018-07-21T15:09:31.310Z,11.10
2018-07-21T15:11:58.804Z,7.87
2018-07-21T15:14:26.229Z,7.90
2018-07-21T15:16:53.707Z,7.60
2018-07-21T15:19:21.174Z,4.37
2018-07-21T15:21:48.663Z,4.08
2018-07-21T15:24:16.184Z,3.70
2018-07-21T15:26:43.621Z,3.70
2018-07-21T15:29:10.999Z,3.85
2018-07-21T15:31:38.463Z,3.95
2018-07-21T15:34:05.913Z,4.20
2018-07-21T15:36:33.401Z,4.40
2018-07-21T15:39:00.800Z,4.62
2018-07-21T15:41:28.263Z,4.90
2018-07-21T15:43:55.663Z,4.80
2018-07-21T15:46:23.090Z,4.70
2018-07-21T15:48:50.531Z,5.00
2018-07-21T15:51:17.931Z,5.40
2018-07-21T15:53:45.313Z,4.95
2018-07-21T15:56:12.814Z,6.60
2018-07-21T15:58:40.334Z,6.10
2018-07-21T16:01:07.806Z,7.30
2018-07-21T16:03:35.317Z,7.53
2018-07-21T16:06:02.833Z,6.35
2018-07-21T16:08:30.358Z,6.73
2018-07-21T16:10:57.736Z,6.97
2018-07-21T16:13:25.208Z,6.90
2018-07-21T16:15:52.664Z,7.42
2018-07-21T16:18:20.120Z,7.90
2018-07-21T16:20:47.624Z,11.85
2018-07-21T16:23:15.001Z,7.92
2018-07-21T16:25:42.554Z,7.30
2018-07-21T16:28:09.952Z,7.28
2018-07-21T16:30:37.429Z,8.25
2018-07-21T16:33:05.088Z,9.25
2018-07-21T16:35:32.519Z,8.28
2018-07-21T16:37:59.947Z,8.80
2018-07-21T16:40:27.461Z,8.13
2018-07-21T16:42:54.926Z,8.15
2018-07-21T16:45:22.452Z,8.05
2018-07-21T16:47:49.981Z,9.25
2018-07-21T16:50:17.404Z,9.73
2018-07-21T16:52:44.875Z,10.40
2018-07-21T16:55:12.457Z,10.80
2018-07-21T16:57:39.841Z,10.40
2018-07-21T17:00:07.275Z,9.93
2018-07-21T17:02:34.656Z,9.13
2018-07-21T17:05:02.143Z,8.67
2018-07-21T17:07:29.620Z,8.25
2018-07-21T17:09:57.001Z,7.85
2018-07-21T17:12:24.426Z,12.58
2018-07-21T17:14:51.798Z,7.60
2018-07-21T17:17:19.452Z,6.92
2018-07-21T17:19:46.904Z,6.72
2018-07-21T17:22:14.360Z,6.42
2018-07-21T17:24:41.767Z,6.55
2018-07-21T17:27:09.260Z,6.28
2018-07-21T17:29:36.792Z,6.70
2018-07-21T17:32:04.176Z,6.12
2018-07-21T17:34:31.695Z,6.50
2018-07-21T17:36:59.165Z,5.62
2018-07-21T17:39:26.700Z,6.85
2018-07-21T17:41:54.023Z,6.03
2018-07-21T17:44:21.463Z,7.35
2018-07-21T17:46:48.865Z,6.70
2018-07-21T17:49:16.345Z,7.67
2018-07-21T17:51:43.736Z,9.58
2018-07-21T17:54:11.167Z,10.18
2018-07-21T17:56:38.518Z,8.35
2018-07-21T17:59:05.991Z,11.15
2018-07-21T18:01:33.437Z,9.63
2018-07-21T18:04:00.873Z,10.08
2018-07-21T18:06:28.306Z,7.83
2018-07-21T18:08:55.729Z,8.08
2018-07-21T18:11:23.247Z,9.18
2018-07-21T18:13:50.712Z,6.87
2018-07-21T18:16:18.122Z,7.20
2018-07-21T18:18:45.594Z,7.20
2018-07-21T18:21:13.121Z,6.97
2018-07-21T18:23:40.645Z,8.07
2018-07-21T18:26:08.098Z,8.30
2018-07-21T18:28:35.569Z,8.25
2018-07-21T18:31:03.030Z,10.05
2018-07-21T18:33:30.639Z,8.70
2018-07-21T18:35:58.122Z,8.43
2018-07-21T18:38:25.639Z,8.78
2018-07-21T18:40:53.111Z,12.80
2018-07-21T18:43:20.602Z,9.55
2018-07-21T18:45:48.074Z,9.93
2018-07-21T18:48:15.516Z,10.50
2018-07-21T18:50:42.976Z,10.20
2018-07-21T18:53:10.399Z,10.43
2018-07-21T18:55:37.865Z,9.80
2018-07-21T18:58:05.338Z,10.35
2018-07-21T19:00:32.703Z,10.40
2018-07-21T19:03:00.128Z,10.80
2018-07-21T19:05:27.633Z,11.12
2018-07-21T19:07:55.096Z,9.80
2018-07-21T19:10:22.582Z,9.28
2018-07-21T19:12:50.013Z,10.18
2018-07-21T19:16:21.055Z,10.10
2018-07-21T19:18:48.836Z,10.58
2018-07-21T19:21:17.279Z,10.38
2018-07-21T19:23:45.128Z,10.43
2018-07-21T19:26:18.277Z,11.22
2018-07-21T19:28:45.720Z,11.43
2018-07-21T19:31:13.130Z,11.28
2018-07-21T19:33:40.454Z,11.20
2018-07-21T19:36:07.945Z,11.68
2018-07-21T19:38:35.394Z,19.27
2018-07-21T19:41:08.630Z,13.93
2018-07-21T19:43:36.070Z,13.68
2018-07-21T19:46:03.499Z,13.20
2018-07-21T19:48:30.956Z,14.85
2018-07-21T19:50:58.387Z,14.85
2018-07-21T19:53:25.894Z,14.75
2018-07-21T19:55:53.372Z,15.30
2018-07-21T19:58:20.889Z,16.05
2018-07-21T20:00:48.410Z,15.78
2018-07-21T20:03:16.347Z,15.28
2018-07-21T20:05:43.737Z,16.40
2018-07-21T20:08:11.162Z,15.63
2018-07-21T20:10:38.712Z,15.58
2018-07-21T20:13:06.134Z,15.28
2018-07-21T20:15:34.100Z,15.30
2018-07-21T20:18:01.466Z,16.45
2018-07-21T20:20:28.995Z,16.27
2018-07-21T20:22:56.395Z,16.65
2018-07-21T20:25:23.956Z,16.10
2018-07-21T20:27:51.522Z,16.87
2018-07-21T20:30:19.094Z,16.50
2018-07-21T20:32:46.504Z,16.05
2018-07-21T20:35:13.933Z,16.87
2018-07-21T20:37:41.505Z,16.30
2018-07-21T20:40:08.957Z,17.35
2018-07-21T20:42:36.383Z,17.62
2018-07-21T20:45:03.838Z,16.85
2018-07-21T20:47:31.271Z,17.30
2018-07-21T20:49:58.683Z,17.80
2018-07-21T20:52:26.144Z,18.80
2018-07-21T20:54:53.578Z,16.97
2018-07-21T20:57:21.037Z,17.82
2018-07-21T20:59:48.514Z,18.67
2018-07-21T21:02:16.034Z,19.45
2018-07-21T21:04:43.494Z,22.15
2018-07-21T21:07:11.166Z,22.60
2018-07-21T21:09:38.615Z,21.75
2018-07-21T21:12:06.093Z,20.97
2018-07-21T21:14:33.493Z,19.60
2018-07-21T21:17:00.817Z,21.65
2018-07-21T21:19:28.236Z,20.40
2018-07-21T21:21:55.560Z,20.45
2018-07-21T21:24:22.985Z,19.27
2018-07-21T21:26:50.431Z,19.60
2018-07-21T21:29:17.798Z,18.20
2018-07-21T21:31:45.190Z,18.67
2018-07-21T21:34:12.573Z,17.80
2018-07-21T21:36:39.927Z,17.67
2018-07-21T21:39:09.391Z,16.87
2018-07-21T21:41:36.860Z,15.88
2018-07-21T21:44:04.361Z,15.40
2018-07-21T21:46:31.785Z,15.72
2018-07-21T21:48:59.235Z,14.90
2018-07-21T21:51:26.722Z,17.00
2018-07-21T21:53:54.106Z,16.97
2018-07-21T21:56:21.425Z,15.83
2018-07-21T21:58:48.982Z,15.53
2018-07-21T22:01:16.496Z,14.30
2018-07-21T22:03:44.433Z,14.18
2018-07-21T22:06:11.846Z,14.68
2018-07-21T22:08:39.423Z,13.95
2018-07-21T22:11:07.130Z,13.50
2018-07-21T22:13:34.581Z,14.78
2018-07-21T22:16:02.105Z,13.65
2018-07-21T22:18:30.447Z,12.80
2018-07-21T22:20:57.905Z,13.32
2018-07-21T22:23:25.475Z,13.13
2018-07-21T22:25:52.889Z,11.93
2018-07-21T22:28:20.388Z,12.00
2018-07-21T22:30:47.807Z,11.90
2018-07-21T22:33:15.264Z,11.10
2018-07-21T22:35:42.737Z,11.18
2018-07-21T22:38:10.265Z,11.20
2018-07-21T22:40:37.747Z,11.18
2018-07-21T22:43:05.223Z,10.88
2018-07-21T22:45:32.707Z,11.53
2018-07-21T22:48:00.202Z,11.35
2018-07-21T22:50:27.627Z,10.80
2018-07-21T22:52:55.160Z,11.20
2018-07-21T22:55:22.591Z,11.38
2018-07-21T22:57:50.143Z,11.33
2018-07-21T23:00:17.573Z,12.10
2018-07-21T23:02:45.078Z,11.60
2018-07-21T23:05:12.577Z,11.75
2018-07-21T23:07:40.021Z,11.63
2018-07-21T23:10:07.647Z,11.43
2018-07-21T23:12:35.816Z,12.53
2018-07-21T23:15:03.989Z,12.25
2018-07-21T23:17:31.471Z,11.78
2018-07-21T23:19:59.051Z,11.78
2018-07-21T23:22:26.557Z,12.95
2018-07-21T23:24:53.993Z,12.43
2018-07-21T23:27:21.385Z,11.87
2018-07-21T23:29:49.479Z,11.73
2018-07-21T23:32:16.930Z,12.10
2018-07-21T23:34:44.423Z,12.07
2018-07-21T23:37:11.792Z,12.07
2018-07-21T23:39:39.174Z,11.88
2018-07-21T23:42:06.636Z,12.00
2018-07-21T23:44:34.097Z,11.80
2018-07-21T23:47:01.512Z,11.40
2018-07-21T23:49:28.940Z,11.10
2018-07-21T23:51:56.335Z,11.83
2018-07-21T23:54:23.674Z,12.03
2018-07-21T23:56:51.143Z,12.18
2018-07-21T23:59:18.623Z,11.60
